N987SK PANO-PAMR

Flight info

Callsign N987SK
Flight time N/A
Altitude 3500
Route DIRECT
Aircraft PA24/L-SDGRY/S

Departure

Time 2026-04-28 21:17
Airport Nondalton Airport (PANO)

Arrival

Time N/A
Airport Merrill Field (PAMR)
Time Latitude Longitude Altitude Speed Heading
2026-04-28 21:14 59.97971 -154.83768 362 ft 0 kts 188°
2026-04-28 21:15 59.97980 -154.83775 367 ft 7 kts 94°
2026-04-28 21:15 59.97883 -154.83936 366 ft 24 kts 227°
2026-04-28 21:16 59.97797 -154.84149 367 ft 17 kts 282°
2026-04-28 21:16 59.97954 -154.84021 374 ft 63 kts 37°
2026-04-28 21:16 59.98376 -154.83353 592 ft 86 kts 59°
2026-04-28 21:16 59.98727 -154.82303 852 ft 95 kts 65°
2026-04-28 21:17 59.99059 -154.81100 1106 ft 103 kts 71°
2026-04-28 21:17 59.99438 -154.79822 1352 ft 113 kts 53°
2026-04-28 21:17 60.00030 -154.78592 1407 ft 136 kts 51°
2026-04-28 21:17 60.00713 -154.77171 1434 ft 145 kts 49°
2026-04-28 21:18 60.01427 -154.75692 1409 ft 150 kts 51°
2026-04-28 21:18 60.02179 -154.74231 1407 ft 150 kts 48°
2026-04-28 21:18 60.02916 -154.72754 1405 ft 149 kts 49°
2026-04-28 21:18 60.03656 -154.71288 1405 ft 149 kts 50°
2026-04-28 21:19 60.04379 -154.69822 1407 ft 148 kts 48°
2026-04-28 21:19 60.05094 -154.68349 1403 ft 148 kts 50°
2026-04-28 21:19 60.05829 -154.66879 1405 ft 150 kts 50°
2026-04-28 21:19 60.06570 -154.65406 1406 ft 150 kts 49°
2026-04-28 21:20 60.07292 -154.63921 1404 ft 151 kts 50°
2026-04-28 21:20 60.08049 -154.62440 1410 ft 149 kts 47°
2026-04-28 21:20 60.08777 -154.60956 1409 ft 148 kts 50°
2026-04-28 21:20 60.09455 -154.59467 1405 ft 145 kts 50°
2026-04-28 21:21 60.10220 -154.58223 1401 ft 139 kts 20°
2026-04-28 21:21 60.11164 -154.58280 1260 ft 140 kts 346°
2026-04-28 21:21 60.11970 -154.59271 1039 ft 130 kts 305°
2026-04-28 21:21 60.12011 -154.60718 844 ft 96 kts 229°
2026-04-28 21:22 60.11509 -154.61507 484 ft 86 kts 232°
2026-04-28 21:22 60.11156 -154.62213 397 ft 56 kts 228°
2026-04-28 21:22 60.10961 -154.62638 400 ft 29 kts 226°
2026-04-28 21:22 60.10890 -154.62803 403 ft 18 kts 243°
2026-04-28 21:23 60.10929 -154.62702 402 ft 26 kts 42°
2026-04-28 21:23 60.11040 -154.62468 395 ft 21 kts 47°
2026-04-28 21:23 60.11122 -154.62288 395 ft 16 kts 47°
2026-04-28 21:23 60.11198 -154.62122 395 ft 16 kts 47°
2026-04-28 21:24 60.11262 -154.61986 396 ft 13 kts 47°
2026-04-28 21:24 60.11321 -154.61858 398 ft 13 kts 47°
2026-04-28 21:24 60.11387 -154.61719 396 ft 15 kts 45°
2026-04-28 21:24 60.11453 -154.61662 398 ft 5 kts 30°
2026-04-28 21:25 60.11459 -154.61614 395 ft 6 kts 161°
2026-04-28 21:25 60.11327 -154.61848 403 ft 61 kts 219°
2026-04-28 21:25 60.10958 -154.62651 579 ft 90 kts 227°
2026-04-28 21:25 60.11312 -154.62986 562 ft 118 kts 38°
2026-04-28 21:26 60.11929 -154.61718 700 ft 131 kts 48°
2026-04-28 21:26 60.12501 -154.60282 773 ft 136 kts 66°
2026-04-28 21:26 60.12689 -154.58465 991 ft 125 kts 85°
2026-04-28 21:26 60.12774 -154.56772 1178 ft 126 kts 86°
2026-04-28 21:27 60.12857 -154.54998 1286 ft 125 kts 86°
2026-04-28 21:27 60.12947 -154.53314 1463 ft 122 kts 86°
2026-04-28 21:27 60.13044 -154.51602 1528 ft 126 kts 86°
2026-04-28 21:27 60.13142 -154.49810 1554 ft 133 kts 86°
2026-04-28 21:28 60.13481 -154.48067 1553 ft 139 kts 58°
2026-04-28 21:28 60.14056 -154.46460 1544 ft 144 kts 57°
2026-04-28 21:28 60.14650 -154.44825 1544 ft 145 kts 56°
2026-04-28 21:28 60.15251 -154.43191 1546 ft 146 kts 56°
2026-04-28 21:29 60.15864 -154.41562 1547 ft 146 kts 55°
2026-04-28 21:29 60.16451 -154.39901 1548 ft 145 kts 57°
2026-04-28 21:29 60.17049 -154.38263 1547 ft 145 kts 55°
2026-04-28 21:29 60.17649 -154.36630 1546 ft 145 kts 56°
2026-04-28 21:30 60.18250 -154.35000 1545 ft 145 kts 55°
2026-04-28 21:30 60.18853 -154.33368 1547 ft 145 kts 55°
2026-04-28 21:30 60.19465 -154.31759 1546 ft 145 kts 54°
2026-04-28 21:30 60.20079 -154.30144 1548 ft 145 kts 54°
2026-04-28 21:31 60.20692 -154.28531 1547 ft 145 kts 54°
2026-04-28 21:31 60.21322 -154.26943 1538 ft 146 kts 48°
2026-04-28 21:31 60.22214 -154.26027 1520 ft 148 kts
2026-04-28 21:31 60.23185 -154.26498 1528 ft 149 kts 327°
2026-04-28 21:32 60.23805 -154.28120 1531 ft 148 kts 288°
2026-04-28 21:32 60.23790 -154.30145 1538 ft 147 kts 249°
2026-04-28 21:32 60.23166 -154.31707 1541 ft 144 kts 214°
2026-04-28 21:32 60.22329 -154.32809 1546 ft 144 kts 211°
2026-04-28 21:33 60.21451 -154.33752 1538 ft 145 kts 193°
2026-04-28 21:33 60.20473 -154.33561 1542 ft 142 kts 161°
2026-04-28 21:33 60.19533 -154.32919 1540 ft 142 kts 160°
2026-04-28 21:33 60.18635 -154.32109 1517 ft 143 kts 139°
2026-04-28 21:34 60.18167 -154.30407 1540 ft 142 kts 104°
2026-04-28 21:34 60.18035 -154.28443 1540 ft 142 kts 97°
2026-04-28 21:34 60.17937 -154.26477 1531 ft 142 kts 96°
2026-04-28 21:34 60.17847 -154.24490 1538 ft 143 kts 96°
2026-04-28 21:35 60.17763 -154.22509 1528 ft 141 kts 96°
2026-04-28 21:35 60.17709 -154.20533 1537 ft 142 kts 86°
2026-04-28 21:35 60.17863 -154.18572 1538 ft 142 kts 79°
2026-04-28 21:35 60.18097 -154.16628 1537 ft 143 kts 78°
2026-04-28 21:36 60.18343 -154.14684 1539 ft 144 kts 73°
2026-04-28 21:36 60.18686 -154.12793 1537 ft 144 kts 71°
2026-04-28 21:36 60.19034 -154.10933 1530 ft 144 kts 71°
2026-04-28 21:36 60.19362 -154.09021 1538 ft 145 kts 78°
2026-04-28 21:37 60.19240 -154.07056 1528 ft 143 kts 115°
2026-04-28 21:37 60.18814 -154.05275 1548 ft 139 kts 117°
2026-04-28 21:37 60.18371 -154.03573 1612 ft 137 kts 119°
2026-04-28 21:37 60.17888 -154.01925 1652 ft 137 kts 122°
2026-04-28 21:38 60.17370 -154.00312 1688 ft 137 kts 123°
2026-04-28 21:38 60.16877 -153.98677 1718 ft 137 kts 120°
2026-04-28 21:38 60.16441 -153.96972 1744 ft 138 kts 115°
2026-04-28 21:38 60.16041 -153.95230 1715 ft 141 kts 115°
2026-04-28 21:39 60.15621 -153.93421 1687 ft 143 kts 114°
2026-04-28 21:39 60.15231 -153.91616 1703 ft 140 kts 114°
2026-04-28 21:39 60.14671 -153.90007 1644 ft 143 kts 135°
2026-04-28 21:39 60.13980 -153.88604 1683 ft 140 kts 134°
2026-04-28 21:40 60.13325 -153.87196 1751 ft 137 kts 131°
2026-04-28 21:40 60.12704 -153.85755 1764 ft 137 kts 129°
2026-04-28 21:40 60.12040 -153.84342 1744 ft 140 kts 140°
2026-04-28 21:40 60.11202 -153.83433 1804 ft 136 kts 162°
2026-04-28 21:41 60.10297 -153.82935 1912 ft 133 kts 165°
2026-04-28 21:41 60.09497 -153.82070 2028 ft 131 kts 135°
2026-04-28 21:41 60.09002 -153.80569 2122 ft 130 kts 119°
2026-04-28 21:41 60.08537 -153.78997 2203 ft 132 kts 120°
2026-04-28 21:42 60.08056 -153.77432 2280 ft 133 kts 122°
2026-04-28 21:42 60.07510 -153.75951 2369 ft 131 kts 139°
2026-04-28 21:42 60.06777 -153.75010 2695 ft 114 kts 144°
2026-04-28 21:42 60.06355 -153.73711 2757 ft 123 kts 93°
2026-04-28 21:43 60.06577 -153.72036 2841 ft 128 kts 69°
2026-04-28 21:43 60.06927 -153.70412 3011 ft 128 kts 69°
2026-04-28 21:43 60.07298 -153.68778 3139 ft 129 kts 69°
2026-04-28 21:43 60.07620 -153.67115 3241 ft 129 kts 74°
2026-04-28 21:44 60.07888 -153.65371 3301 ft 132 kts 76°
2026-04-28 21:44 60.08181 -153.63622 3390 ft 132 kts 66°
2026-04-28 21:44 60.08676 -153.62066 3490 ft 132 kts 59°
2026-04-28 21:44 60.08873 -153.60408 3636 ft 126 kts 118°
2026-04-28 21:45 60.08173 -153.59296 3567 ft 135 kts 150°
2026-04-28 21:45 60.07325 -153.58330 3442 ft 144 kts 150°
2026-04-28 21:45 60.06427 -153.57315 3278 ft 152 kts 150°
2026-04-28 21:45 60.05550 -153.56071 3039 ft 158 kts 130°
2026-04-28 21:46 60.05129 -153.54087 2909 ft 156 kts 96°
2026-04-28 21:46 60.05194 -153.51925 2800 ft 155 kts 86°
2026-04-28 21:46 60.05288 -153.49778 2685 ft 154 kts 86°
2026-04-28 21:46 60.05387 -153.47665 2562 ft 155 kts 85°
2026-04-28 21:47 60.05502 -153.45573 2556 ft 147 kts 84°
2026-04-28 21:47 60.05623 -153.43632 2728 ft 137 kts 84°
2026-04-28 21:47 60.05809 -153.41730 2681 ft 142 kts 76°
2026-04-28 21:47 60.06078 -153.39840 2717 ft 140 kts 79°
2026-04-28 21:48 60.06131 -153.37890 2700 ft 142 kts 98°
2026-04-28 21:48 60.05646 -153.36292 2736 ft 140 kts 152°
2026-04-28 21:48 60.04669 -153.35718 2447 ft 154 kts 166°
2026-04-28 21:48 60.03690 -153.35055 2467 ft 147 kts 160°
2026-04-28 21:49 60.02739 -153.34382 2469 ft 142 kts 161°
2026-04-28 21:49 60.01814 -153.33733 2480 ft 139 kts 161°
2026-04-28 21:49 60.00886 -153.33152 2486 ft 140 kts 161°
2026-04-28 21:49 59.99966 -153.32507 2489 ft 139 kts 161°
2026-04-28 21:50 59.99045 -153.31883 2489 ft 139 kts 161°
2026-04-28 21:50 59.98135 -153.31262 2489 ft 138 kts 161°
2026-04-28 21:50 59.97222 -153.30632 2489 ft 138 kts 161°
2026-04-28 21:50 59.96285 -153.29986 2278 ft 151 kts 161°
2026-04-28 21:51 59.95278 -153.29280 2140 ft 150 kts 160°
2026-04-28 21:51 59.94363 -153.28567 2220 ft 143 kts 160°
2026-04-28 21:51 59.93422 -153.27780 2058 ft 148 kts 160°
2026-04-28 21:51 59.92492 -153.27010 1993 ft 143 kts 160°
2026-04-28 21:52 59.91555 -153.26290 1816 ft 146 kts 161°
2026-04-28 21:52 59.90612 -153.25531 1672 ft 145 kts 161°
2026-04-28 21:52 59.89662 -153.24775 1472 ft 147 kts 160°
2026-04-28 21:52 59.88715 -153.24017 1302 ft 149 kts 161°
2026-04-28 21:53 59.87757 -153.23212 1112 ft 148 kts 156°
2026-04-28 21:53 59.86841 -153.22379 906 ft 141 kts 157°
2026-04-28 21:53 59.86373 -153.21632 1016 ft 125 kts 129°
2026-04-28 21:53 59.86037 -153.20035 928 ft 129 kts 110°
2026-04-28 21:54 59.85808 -153.18404 794 ft 114 kts 104°
2026-04-28 21:54 59.85780 -153.16915 677 ft 102 kts 94°
2026-04-28 21:54 59.85801 -153.15597 570 ft 88 kts 92°
2026-04-28 21:54 59.85858 -153.14456 476 ft 81 kts 87°
2026-04-28 21:55 59.85932 -153.13385 399 ft 73 kts 94°
2026-04-28 21:55 59.86000 -153.12452 377 ft 64 kts 77°
2026-04-28 21:55 59.86245 -153.11735 380 ft 67 kts 29°
2026-04-28 21:55 59.86635 -153.12080 337 ft 76 kts 273°
2026-04-28 21:56 59.86524 -153.13061 316 ft 71 kts 245°
2026-04-28 21:56 59.86318 -153.13945 302 ft 70 kts 238°
2026-04-28 21:56 59.86122 -153.14801 305 ft 69 kts 236°
2026-04-28 21:56 59.85853 -153.15580 307 ft 66 kts 226°
2026-04-28 21:57 59.85504 -153.16171 296 ft 67 kts 193°
2026-04-28 21:57 59.85150 -153.15810 317 ft 62 kts 104°
2026-04-28 21:57 59.85435 -153.15210 185 ft 74 kts 32°
2026-04-28 21:57 59.85826 -153.14611 22 ft 66 kts 46°
2026-04-28 21:58 59.86107 -153.13974 84 ft 67 kts 83°
2026-04-28 21:58 59.86205 -153.13083 125 ft 71 kts 40°
2026-04-28 21:58 59.86514 -153.12460 66 ft 53 kts 70°
2026-04-28 21:58 59.86623 -153.11777 77 ft 65 kts 75°
2026-04-28 21:59 59.86765 -153.10664 22 ft 109 kts 80°
2026-04-28 21:59 59.87168 -153.09742 369 ft 98 kts 295°
2026-04-28 21:59 59.86919 -153.11307 83 ft 150 kts 250°
2026-04-28 22:00 59.85803 -153.13158 941 ft 87 kts 111°
2026-04-28 22:00 59.85575 -153.12011 890 ft 90 kts 137°
2026-04-28 22:00 59.85091 -153.11198 808 ft 85 kts 142°
2026-04-28 22:00 59.84670 -153.10450 754 ft 77 kts 142°
2026-04-28 22:01 59.84341 -153.09814 626 ft 61 kts 136°
2026-04-28 22:01 59.84041 -153.09216 496 ft 63 kts 159°
2026-04-28 22:01 59.83616 -153.09350 348 ft 64 kts 179°
2026-04-28 22:01 59.83287 -153.08913 104 ft 64 kts 88°
2026-04-28 22:02 59.83298 -153.08202 24 ft 23 kts 240°
2026-04-28 22:02 59.83289 -153.08141 5 ft 0 kts 334°
2026-04-28 22:02 59.83290 -153.08141 4 ft 0 kts 332°
2026-04-28 22:04 59.83318 -153.08514 58 ft 0 kts 127°
2026-04-28 22:04 59.83317 -153.08508 58 ft 4 kts 101°
2026-04-28 22:04 59.83325 -153.08443 58 ft 6 kts 342°
2026-04-28 22:05 59.83319 -153.08502 53 ft 5 kts 277°
2026-04-28 22:05 59.83320 -153.08553 55 ft 3 kts 263°
2026-04-28 22:05 59.83316 -153.08599 59 ft 6 kts 262°
2026-04-28 22:05 59.83309 -153.08670 57 ft 6 kts 274°
2026-04-28 22:06 59.83304 -153.08738 59 ft 6 kts 245°
2026-04-28 22:06 59.83296 -153.08818 55 ft 9 kts 258°
2026-04-28 22:06 59.83212 -153.09457 132 ft 66 kts 264°
2026-04-28 22:06 59.83547 -153.10018 350 ft 86 kts 20°
2026-04-28 22:07 59.83921 -153.09106 684 ft 93 kts 64°
2026-04-28 22:07 59.84161 -153.07838 974 ft 103 kts 81°
2026-04-28 22:07 59.84230 -153.06405 1292 ft 108 kts 97°
2026-04-28 22:07 59.84050 -153.04936 1580 ft 109 kts 120°
2026-04-28 22:08 59.83672 -153.03670 1919 ft 107 kts 133°
2026-04-28 22:08 59.83179 -153.02546 2211 ft 107 kts 137°
2026-04-28 22:08 59.82714 -153.01443 2410 ft 104 kts 128°
2026-04-28 22:08 59.82283 -153.00262 2633 ft 105 kts 135°
2026-04-28 22:09 59.81846 -152.99114 2928 ft 106 kts 133°
2026-04-28 22:09 59.81393 -152.97932 3204 ft 108 kts 134°
2026-04-28 22:09 59.80934 -152.96761 3494 ft 107 kts 135°
2026-04-28 22:09 59.80469 -152.95595 3755 ft 108 kts 135°
2026-04-28 22:10 59.80002 -152.94423 4035 ft 108 kts 135°
2026-04-28 22:10 59.79535 -152.93254 4294 ft 108 kts 135°
2026-04-28 22:10 59.79067 -152.92083 4563 ft 108 kts 135°
2026-04-28 22:10 59.78600 -152.90907 4819 ft 109 kts 135°
2026-04-28 22:11 59.78131 -152.89724 5059 ft 109 kts 135°
2026-04-28 22:11 59.77662 -152.88543 5300 ft 109 kts 136°
2026-04-28 22:11 59.77191 -152.87360 5540 ft 109 kts 136°
2026-04-28 22:11 59.76722 -152.86178 5774 ft 109 kts 136°
2026-04-28 22:12 59.76250 -152.84993 6005 ft 109 kts 136°
2026-04-28 22:12 59.75780 -152.83808 6235 ft 109 kts 136°
2026-04-28 22:12 59.75308 -152.82620 6453 ft 110 kts 136°
2026-04-28 22:12 59.74836 -152.81431 6658 ft 110 kts 136°
2026-04-28 22:13 59.74359 -152.80233 6864 ft 110 kts 136°
2026-04-28 22:13 59.73884 -152.79036 7058 ft 111 kts 136°
2026-04-28 22:13 59.73411 -152.77831 7243 ft 111 kts 137°
2026-04-28 22:13 59.72938 -152.76628 7441 ft 111 kts 138°
2026-04-28 22:14 59.72463 -152.75443 7626 ft 111 kts 139°
2026-04-28 22:14 59.71977 -152.74243 7816 ft 112 kts 139°
2026-04-28 22:14 59.71491 -152.73034 8002 ft 112 kts 138°
2026-04-28 22:14 59.71002 -152.71818 8185 ft 113 kts 138°
2026-04-28 22:15 59.70515 -152.70599 8368 ft 113 kts 138°
2026-04-28 22:15 59.70027 -152.69378 8542 ft 114 kts 138°
2026-04-28 22:15 59.69534 -152.68149 8718 ft 114 kts 138°
2026-04-28 22:15 59.69041 -152.66919 8886 ft 114 kts 138°
2026-04-28 22:16 59.68547 -152.65685 9058 ft 114 kts 138°
2026-04-28 22:16 59.68050 -152.64444 9222 ft 115 kts 138°
2026-04-28 22:16 59.67558 -152.63216 9356 ft 118 kts 138°
2026-04-28 22:16 59.67021 -152.61898 9373 ft 127 kts 138°
2026-04-28 22:17 59.66451 -152.60492 9363 ft 134 kts 137°
2026-04-28 22:17 59.65864 -152.59029 9364 ft 137 kts 137°
2026-04-28 22:17 59.65266 -152.57534 9361 ft 140 kts 137°
2026-04-28 22:17 59.64661 -152.56021 9359 ft 141 kts 136°
2026-04-28 22:18 59.64052 -152.54499 9357 ft 142 kts 137°
2026-04-28 22:18 59.63438 -152.52971 9356 ft 142 kts 136°
2026-04-28 22:18 59.62824 -152.51440 9356 ft 142 kts 137°
2026-04-28 22:18 59.62208 -152.49910 9356 ft 142 kts 137°
2026-04-28 22:19 59.61590 -152.48379 9353 ft 142 kts 137°
2026-04-28 22:19 59.60973 -152.46836 9353 ft 144 kts 137°
2026-04-28 22:19 59.60346 -152.45282 9353 ft 144 kts 137°
2026-04-28 22:19 59.59718 -152.43730 9353 ft 145 kts 137°
2026-04-28 22:20 59.59080 -152.42181 9328 ft 146 kts 137°
2026-04-28 22:20 59.58445 -152.40616 9337 ft 145 kts 136°
2026-04-28 22:20 59.57816 -152.39057 9358 ft 145 kts 136°
2026-04-28 22:20 59.57192 -152.37496 9359 ft 145 kts 137°
2026-04-28 22:21 59.56564 -152.35939 9359 ft 145 kts 137°
2026-04-28 22:21 59.55933 -152.34392 9355 ft 144 kts 137°
2026-04-28 22:21 59.55319 -152.32852 9124 ft 142 kts 137°
2026-04-28 22:21 59.54725 -152.31382 8942 ft 137 kts 138°
2026-04-28 22:22 59.54117 -152.29920 8672 ft 139 kts 137°
2026-04-28 22:22 59.53513 -152.28452 8461 ft 137 kts 137°
2026-04-28 22:22 59.52920 -152.26975 8222 ft 137 kts 137°
2026-04-28 22:22 59.52327 -152.25513 8013 ft 136 kts 138°
2026-04-28 22:23 59.51734 -152.24067 7799 ft 136 kts 138°
2026-04-28 22:23 59.51139 -152.22626 7577 ft 136 kts 137°
2026-04-28 22:23 59.50549 -152.21180 7358 ft 135 kts 137°
2026-04-28 22:23 59.49969 -152.19738 7158 ft 134 kts 138°
2026-04-28 22:24 59.49387 -152.18313 6954 ft 133 kts 139°
2026-04-28 22:24 59.48997 -152.17374 6821 ft 134 kts 139°
2026-04-28 22:24 59.48408 -152.15963 6624 ft 133 kts 137°
2026-04-28 22:24 59.47825 -152.14542 6432 ft 134 kts 137°
2026-04-28 22:25 59.47250 -152.13115 6237 ft 133 kts 137°
2026-04-28 22:25 59.46676 -152.11695 6040 ft 132 kts 139°
2026-04-28 22:25 59.46104 -152.10293 5851 ft 131 kts 139°
2026-04-28 22:25 59.45528 -152.08909 5666 ft 131 kts 138°
2026-04-28 22:26 59.44893 -152.07658 5468 ft 128 kts 155°
2026-04-28 22:26 59.44142 -152.06742 5207 ft 125 kts 156°
2026-04-28 22:26 59.43414 -152.05852 4968 ft 123 kts 156°
2026-04-28 22:26 59.42687 -152.04949 4699 ft 124 kts 156°
2026-04-28 22:27 59.41966 -152.04054 4467 ft 121 kts 156°
2026-04-28 22:27 59.41262 -152.03179 4211 ft 122 kts 156°
2026-04-28 22:27 59.40551 -152.02291 3990 ft 120 kts 156°
2026-04-28 22:27 59.39848 -152.01396 3758 ft 120 kts 156°
2026-04-28 22:28 59.39148 -152.00502 3528 ft 119 kts 155°
2026-04-28 22:28 59.38457 -151.99611 3308 ft 119 kts 155°
2026-04-28 22:28 59.37768 -151.98706 3083 ft 119 kts 155°
2026-04-28 22:28 59.37090 -151.97814 2865 ft 116 kts 155°
2026-04-28 22:29 59.36416 -151.96933 2649 ft 117 kts 155°
2026-04-28 22:29 59.35682 -151.96300 2421 ft 117 kts 182°
2026-04-28 22:29 59.34946 -151.96867 2160 ft 116 kts 223°
2026-04-28 22:29 59.34683 -151.98325 1932 ft 121 kts 263°
2026-04-28 22:30 59.35033 -151.99903 1552 ft 140 kts 302°
2026-04-28 22:30 59.35911 -152.00883 1225 ft 153 kts 341°
2026-04-28 22:30 59.36983 -152.00732 893 ft 158 kts 21°
2026-04-28 22:30 59.37714 -151.99466 870 ft 131 kts 78°
2026-04-28 22:31 59.37723 -151.97898 839 ft 106 kts 110°
2026-04-28 22:31 59.37592 -151.96568 779 ft 94 kts 116°
2026-04-28 22:31 59.37423 -151.95432 646 ft 86 kts 122°
2026-04-28 22:31 59.37185 -151.94381 527 ft 81 kts 128°
2026-04-28 22:32 59.36926 -151.93469 458 ft 70 kts 135°
2026-04-28 22:32 59.36648 -151.92827 405 ft 56 kts 150°
2026-04-28 22:32 59.36337 -151.92438 378 ft 52 kts 169°
2026-04-28 22:32 59.35980 -151.92279 317 ft 56 kts 177°
2026-04-28 22:33 59.35624 -151.92245 140 ft 48 kts 181°
2026-04-28 22:33 59.35345 -151.92342 34 ft 31 kts 197°
2026-04-28 22:33 59.35274 -151.92382 32 ft 5 kts 26°
2026-04-28 22:33 59.35359 -151.92318 33 ft 17 kts 24°
2026-04-28 22:34 59.35446 -151.92242 34 ft 7 kts 10°
2026-04-28 22:34 59.35451 -151.92268 34 ft 0 kts 212°
2026-04-28 22:43 59.35426 -151.92239 33 ft 5 kts 170°
2026-04-28 22:43 59.35376 -151.92286 33 ft 38 kts 205°
2026-04-28 22:43 59.35160 -151.92942 72 ft 88 kts 270°
2026-04-28 22:43 59.35819 -151.93128 65 ft 134 kts 49°
2026-04-28 22:44 59.36093 -151.91477 475 ft 123 kts 89°
2026-04-28 22:44 59.36160 -151.89791 784 ft 127 kts 96°
2026-04-28 22:44 59.36154 -151.88036 1090 ft 130 kts 106°
2026-04-28 22:44 59.35949 -151.86373 1457 ft 124 kts 121°
2026-04-28 22:45 59.35654 -151.84740 1290 ft 126 kts 116°
2026-04-28 22:45 59.35501 -151.83117 1334 ft 121 kts 107°
2026-04-28 22:45 59.35447 -151.81381 1187 ft 131 kts 109°
2026-04-28 22:45 59.35056 -151.80061 930 ft 98 kts 157°
2026-04-28 22:46 59.34467 -151.80234 518 ft 90 kts 227°
2026-04-28 22:46 59.34364 -151.81340 364 ft 75 kts 260°
2026-04-28 22:46 59.34405 -151.82281 209 ft 67 kts 291°
2026-04-28 22:46 59.34765 -151.82900 87 ft 64 kts 318°
2026-04-28 22:47 59.35044 -151.83265 85 ft 26 kts 331°
2026-04-28 22:47 59.35069 -151.83319 86 ft 12 kts 139°
2026-04-28 22:47 59.35017 -151.83247 86 ft 4 kts 144°
2026-04-28 22:47 59.35002 -151.83226 86 ft 0 kts 144°
2026-04-28 22:48 59.34975 -151.83181 87 ft 18 kts 137°
2026-04-28 22:48 59.34920 -151.83098 89 ft 5 kts 127°
2026-04-28 22:48 59.34948 -151.83082 89 ft 4 kts 243°
2026-04-28 22:48 59.34943 -151.83087 88 ft 0 kts 185°
2026-04-28 22:49 59.34958 -151.83150 88 ft 18 kts 326°
2026-04-28 22:49 59.35096 -151.83318 81 ft 14 kts 327°
2026-04-28 22:50 59.34992 -151.83209 87 ft 57 kts 146°
2026-04-28 22:50 59.34687 -151.82613 426 ft 45 kts 26°
2026-04-28 22:50 59.35095 -151.83088 376 ft 82 kts 304°
2026-04-28 22:50 59.35725 -151.84251 89 ft 149 kts 322°
2026-04-28 22:51 59.36012 -151.84563 755 ft 81 kts 171°
2026-04-28 22:51 59.36224 -151.84550 1052 ft 102 kts 327°
2026-04-28 22:51 59.37003 -151.85273 1237 ft 139 kts 327°
2026-04-28 22:51 59.37818 -151.86194 1617 ft 132 kts 321°
2026-04-28 22:52 59.38609 -151.87147 1902 ft 135 kts 321°
2026-04-28 22:52 59.39402 -151.88076 2166 ft 133 kts 326°
2026-04-28 22:52 59.40349 -151.88264 2269 ft 145 kts
2026-04-28 22:52 59.41295 -151.87499 2441 ft 148 kts 36°
2026-04-28 22:53 59.42096 -151.86387 2806 ft 139 kts 39°
2026-04-28 22:53 59.42892 -151.85233 2834 ft 147 kts 40°
2026-04-28 22:53 59.43640 -151.83815 2935 ft 154 kts 52°
2026-04-28 22:53 59.44353 -151.82209 2816 ft 158 kts 64°
2026-04-28 22:54 59.44602 -151.80190 2656 ft 148 kts 96°
2026-04-28 22:54 59.44423 -151.78250 2306 ft 144 kts 118°
2026-04-28 22:54 59.44023 -151.76510 1924 ft 138 kts 124°
2026-04-28 22:54 59.43410 -151.75131 1587 ft 131 kts 148°
2026-04-28 22:55 59.42700 -151.73972 1241 ft 128 kts 146°
2026-04-28 22:55 59.42184 -151.72787 949 ft 109 kts 111°
2026-04-28 22:55 59.42483 -151.71566 597 ft 109 kts 24°
2026-04-28 22:55 59.43199 -151.71330 364 ft 96 kts 21°
2026-04-28 22:56 59.43748 -151.70801 149 ft 80 kts 36°
2026-04-28 22:56 59.44225 -151.70543 26 ft 63 kts 10°
2026-04-28 22:56 59.44528 -151.70492 25 ft 22 kts 358°
2026-04-28 22:56 59.44587 -151.70485 27 ft 9 kts 186°
2026-04-28 22:57 59.44459 -151.70501 24 ft 17 kts 184°
2026-04-28 22:57 59.44381 -151.70486 26 ft 10 kts 128°
2026-04-28 22:57 59.44336 -151.70371 26 ft 5 kts 129°
2026-04-28 22:57 59.44334 -151.70365 26 ft 0 kts 130°
2026-04-28 23:03 59.44312 -151.70354 27 ft 12 kts 194°
2026-04-28 23:03 59.44181 -151.70445 25 ft 22 kts 195°
2026-04-28 23:04 59.44059 -151.70500 26 ft 12 kts 217°
2026-04-28 23:04 59.44041 -151.70561 28 ft 5 kts 236°
2026-04-28 23:04 59.44005 -151.70556 27 ft 6 kts 43°
2026-04-28 23:05 59.44337 -151.70525 33 ft 89 kts
2026-04-28 23:05 59.45052 -151.70412 263 ft 110 kts
2026-04-28 23:05 59.45841 -151.70179 678 ft 119 kts 11°
2026-04-28 23:05 59.46661 -151.69848 1204 ft 122 kts 12°
2026-04-28 23:06 59.47502 -151.69439 1632 ft 127 kts 13°
2026-04-28 23:06 59.48357 -151.69011 2091 ft 127 kts 13°
2026-04-28 23:06 59.49224 -151.68555 2511 ft 130 kts 13°
2026-04-28 23:06 59.50096 -151.68087 2946 ft 130 kts 13°
2026-04-28 23:07 59.50967 -151.67611 3357 ft 132 kts 13°
2026-04-28 23:07 59.51845 -151.67141 3746 ft 130 kts 13°
2026-04-28 23:07 59.52708 -151.66594 3987 ft 138 kts 20°
2026-04-28 23:07 59.53663 -151.65839 4052 ft 155 kts 22°
2026-04-28 23:08 59.54669 -151.65033 4217 ft 157 kts 22°
2026-04-28 23:08 59.55683 -151.64230 4446 ft 157 kts 21°
2026-04-28 23:08 59.56701 -151.63431 4671 ft 158 kts 21°
2026-04-28 23:08 59.57750 -151.62624 4811 ft 163 kts 21°
2026-04-28 23:09 59.58806 -151.61715 4822 ft 175 kts 29°
2026-04-28 23:09 59.59883 -151.60392 4665 ft 186 kts 35°
2026-04-28 23:09 59.60957 -151.58926 4605 ft 189 kts 36°
2026-04-28 23:09 59.62051 -151.57456 4473 ft 192 kts 36°
2026-04-28 23:10 59.63166 -151.55950 4270 ft 197 kts 36°
2026-04-28 23:10 59.63924 -151.54947 4088 ft 199 kts 36°
2026-04-28 23:10 59.65491 -151.52868 3640 ft 205 kts 35°
2026-04-28 23:10 59.66669 -151.51347 3496 ft 199 kts 36°
2026-04-28 23:11 59.67785 -151.49824 3484 ft 190 kts 34°
2026-04-28 23:11 59.68864 -151.48450 3485 ft 184 kts 36°
2026-04-28 23:11 59.69924 -151.47036 3489 ft 183 kts 36°
2026-04-28 23:11 59.70979 -151.45646 3489 ft 183 kts 33°
2026-04-28 23:12 59.72098 -151.44452 3492 ft 182 kts 27°
2026-04-28 23:12 59.72858 -151.43744 3494 ft 181 kts 26°
2026-04-28 23:12 59.73996 -151.42682 3494 ft 181 kts 26°
2026-04-28 23:12 59.75147 -151.41652 3495 ft 182 kts 24°
2026-04-28 23:13 59.76297 -151.40567 3493 ft 184 kts 28°
2026-04-28 23:13 59.77453 -151.39463 3458 ft 184 kts 26°
2026-04-28 23:13 59.78585 -151.38275 3459 ft 185 kts 30°
2026-04-28 23:13 59.79723 -151.37107 3460 ft 183 kts 27°
2026-04-28 23:14 59.80879 -151.36005 3461 ft 185 kts 28°
2026-04-28 23:14 59.82032 -151.34858 3458 ft 185 kts 27°
2026-04-28 23:14 59.83192 -151.33720 3461 ft 186 kts 28°
2026-04-28 23:14 59.84346 -151.32581 3461 ft 184 kts 26°
2026-04-28 23:15 59.85516 -151.31486 3458 ft 187 kts 26°
2026-04-28 23:15 59.86693 -151.30397 3457 ft 186 kts 26°
2026-04-28 23:15 59.87855 -151.29269 3456 ft 184 kts 28°
2026-04-28 23:15 59.89004 -151.28117 3457 ft 186 kts 26°
2026-04-28 23:16 59.90163 -151.26954 3457 ft 186 kts 29°
2026-04-28 23:16 59.91295 -151.25742 3457 ft 185 kts 28°
2026-04-28 23:16 59.92499 -151.24865 3436 ft 184 kts
2026-04-28 23:16 59.93680 -151.25379 3358 ft 173 kts 326°
2026-04-28 23:17 59.94718 -151.26623 3099 ft 173 kts 329°
2026-04-28 23:17 59.95784 -151.27583 3229 ft 159 kts 311°
2026-04-28 23:17 59.96109 -151.29409 3263 ft 136 kts 249°
2026-04-28 23:17 59.95556 -151.30647 3212 ft 110 kts 188°
2026-04-28 23:18 59.94904 -151.30060 3252 ft 124 kts 123°
2026-04-28 23:18 59.94751 -151.28265 3361 ft 141 kts 79°
2026-04-28 23:18 59.95398 -151.26881 3594 ft 148 kts 18°
2026-04-28 23:18 59.96359 -151.27410 3512 ft 140 kts 314°
2026-04-28 23:19 59.96568 -151.28977 3560 ft 105 kts 247°
2026-04-28 23:19 59.96092 -151.29805 3511 ft 96 kts 187°
2026-04-28 23:19 59.95587 -151.28834 2961 ft 140 kts 111°
2026-04-28 23:19 59.95272 -151.27026 2528 ft 124 kts 122°
2026-04-28 23:20 59.94979 -151.25538 2435 ft 108 kts 128°
2026-04-28 23:20 59.94849 -151.24241 2363 ft 93 kts 77°
2026-04-28 23:20 59.95404 -151.23881 2352 ft 96 kts 315°
2026-04-28 23:20 59.95512 -151.24876 2435 ft 67 kts 242°
2026-04-28 23:21 59.95430 -151.25798 2517 ft 67 kts 245°
2026-04-28 23:21 59.95407 -151.26680 2529 ft 59 kts 254°
2026-04-28 23:21 59.95394 -151.27463 2564 ft 58 kts 240°
2026-04-28 23:21 59.95360 -151.28278 2679 ft 68 kts 245°
2026-04-28 23:22 59.95670 -151.29108 2746 ft 104 kts 333°
2026-04-28 23:22 59.96341 -151.28562 2994 ft 116 kts 54°
2026-04-28 23:22 59.96672 -151.27070 3208 ft 123 kts 77°
2026-04-28 23:22 59.97003 -151.25393 3438 ft 135 kts 83°
2026-04-28 23:23 59.97120 -151.23421 3422 ft 148 kts 97°
2026-04-28 23:23 59.97221 -151.21352 3424 ft 152 kts 85°
2026-04-28 23:23 59.97773 -151.19494 3416 ft 163 kts 53°
2026-04-28 23:23 59.98701 -151.18125 3411 ft 173 kts 36°
2026-04-28 23:24 59.99756 -151.16866 3410 ft 178 kts 31°
2026-04-28 23:24 60.00873 -151.15786 3409 ft 178 kts 28°
2026-04-28 23:24 60.01989 -151.14689 3410 ft 179 kts 27°
2026-04-28 23:24 60.03123 -151.13622 3409 ft 181 kts 25°
2026-04-28 23:25 60.04278 -151.12646 3410 ft 179 kts 26°
2026-04-28 23:25 60.05409 -151.11564 3410 ft 181 kts 29°
2026-04-28 23:25 60.06539 -151.10441 3412 ft 181 kts 26°
2026-04-28 23:25 60.07672 -151.09338 3406 ft 180 kts 27°
2026-04-28 23:26 60.08787 -151.08205 3408 ft 180 kts 29°
2026-04-28 23:26 60.09898 -151.07058 3407 ft 178 kts 27°
2026-04-28 23:26 60.11017 -151.05977 3408 ft 179 kts 26°
2026-04-28 23:26 60.12148 -151.04891 3407 ft 180 kts 27°
2026-04-28 23:27 60.13269 -151.03786 3405 ft 180 kts 26°
2026-04-28 23:27 60.14403 -151.02713 3407 ft 180 kts 26°
2026-04-28 23:27 60.15505 -151.01598 3408 ft 181 kts 29°
2026-04-28 23:27 60.16632 -151.00417 3407 ft 179 kts 28°
2026-04-28 23:28 60.17733 -150.99310 3409 ft 180 kts 27°
2026-04-28 23:28 60.18861 -150.98216 3409 ft 179 kts 27°
2026-04-28 23:28 60.19982 -150.97092 3407 ft 181 kts 28°
2026-04-28 23:28 60.21095 -150.95928 3408 ft 180 kts 30°
2026-04-28 23:29 60.22200 -150.94741 3406 ft 180 kts 28°
2026-04-28 23:29 60.23396 -150.94011 3405 ft 178 kts 10°
2026-04-28 23:29 60.24592 -150.93433 3408 ft 177 kts 17°
2026-04-28 23:29 60.25736 -150.92508 3409 ft 177 kts 25°
2026-04-28 23:30 60.26828 -150.91336 3409 ft 179 kts 30°
2026-04-28 23:30 60.27902 -150.90072 3408 ft 178 kts 32°
2026-04-28 23:30 60.28970 -150.88785 3403 ft 179 kts 32°
2026-04-28 23:30 60.30015 -150.87438 3405 ft 178 kts 36°
2026-04-28 23:31 60.31068 -150.86090 3407 ft 180 kts 32°
2026-04-28 23:31 60.32144 -150.84850 3405 ft 178 kts 31°
2026-04-28 23:31 60.33238 -150.83632 3404 ft 180 kts 29°
2026-04-28 23:31 60.34332 -150.82509 3404 ft 179 kts 26°
2026-04-28 23:32 60.35452 -150.81397 3402 ft 179 kts 27°
2026-04-28 23:32 60.36551 -150.80222 3405 ft 179 kts 32°
2026-04-28 23:32 60.37638 -150.78974 3405 ft 179 kts 32°
2026-04-28 23:32 60.38694 -150.77667 3404 ft 178 kts 32°
2026-04-28 23:33 60.39791 -150.76490 3399 ft 179 kts 27°
2026-04-28 23:33 60.40925 -150.75469 3400 ft 178 kts 21°
2026-04-28 23:33 60.42085 -150.74544 3399 ft 179 kts 22°
2026-04-28 23:33 60.43212 -150.73507 3399 ft 177 kts 27°
2026-04-28 23:34 60.44290 -150.72269 3404 ft 178 kts 32°
2026-04-28 23:34 60.45362 -150.71020 3404 ft 178 kts 29°
2026-04-28 23:34 60.46485 -150.69948 3405 ft 178 kts 23°
2026-04-28 23:34 60.47612 -150.68989 3404 ft 179 kts 23°
2026-04-28 23:35 60.48753 -150.67963 3402 ft 179 kts 25°
2026-04-28 23:35 60.49883 -150.66930 3404 ft 178 kts 26°
2026-04-28 23:35 60.50975 -150.65755 3402 ft 176 kts 29°
2026-04-28 23:35 60.52052 -150.64576 3401 ft 176 kts 29°
2026-04-28 23:36 60.53138 -150.63413 3401 ft 176 kts 28°
2026-04-28 23:36 60.54203 -150.62176 3404 ft 176 kts 34°
2026-04-28 23:36 60.55255 -150.60885 3405 ft 177 kts 28°
2026-04-28 23:36 60.56349 -150.59743 3403 ft 176 kts 27°
2026-04-28 23:37 60.57423 -150.58540 3405 ft 176 kts 30°
2026-04-28 23:37 60.58492 -150.57349 3405 ft 175 kts 26°
2026-04-28 23:37 60.59604 -150.56339 3404 ft 175 kts 23°
2026-04-28 23:37 60.60697 -150.55244 3404 ft 175 kts 28°
2026-04-28 23:38 60.61778 -150.54073 3402 ft 176 kts 26°
2026-04-28 23:38 60.62873 -150.52972 3404 ft 175 kts 28°
2026-04-28 23:38 60.63938 -150.51806 3403 ft 176 kts 28°
2026-04-28 23:38 60.65026 -150.50685 3403 ft 176 kts 26°
2026-04-28 23:39 60.66121 -150.49574 3405 ft 176 kts 26°
2026-04-28 23:39 60.67244 -150.48607 3407 ft 175 kts 20°
2026-04-28 23:39 60.68368 -150.47607 3408 ft 177 kts 25°
2026-04-28 23:39 60.69445 -150.46421 3407 ft 175 kts 31°
2026-04-28 23:40 60.70512 -150.45178 3406 ft 176 kts 31°
2026-04-28 23:40 60.71589 -150.43991 3405 ft 176 kts 29°
2026-04-28 23:40 60.72676 -150.42819 3404 ft 177 kts 28°
2026-04-28 23:40 60.73771 -150.41687 3406 ft 176 kts 25°
2026-04-28 23:41 60.74905 -150.40709 3408 ft 177 kts 24°
2026-04-28 23:41 60.76018 -150.39643 3409 ft 177 kts 27°
2026-04-28 23:41 60.77080 -150.38405 3409 ft 172 kts 31°
2026-04-28 23:41 60.78118 -150.37194 3408 ft 172 kts 30°
2026-04-28 23:42 60.79174 -150.36055 3409 ft 172 kts 28°
2026-04-28 23:42 60.80210 -150.34848 3409 ft 171 kts 33°
2026-04-28 23:42 60.81042 -150.33179 3412 ft 168 kts 65°
2026-04-28 23:42 60.81504 -150.31007 3414 ft 165 kts 70°
2026-04-28 23:43 60.81983 -150.28868 3411 ft 165 kts 70°
2026-04-28 23:43 60.82449 -150.26715 3412 ft 166 kts 71°
2026-04-28 23:43 60.82923 -150.24556 3413 ft 166 kts 70°
2026-04-28 23:43 60.83392 -150.22432 3412 ft 166 kts 70°
2026-04-28 23:44 60.83870 -150.20276 3412 ft 166 kts 70°
2026-04-28 23:44 60.84346 -150.18121 3413 ft 166 kts 70°
2026-04-28 23:44 60.84829 -150.15977 3413 ft 166 kts 68°
2026-04-28 23:44 60.85345 -150.13852 3368 ft 167 kts 75°
2026-04-28 23:45 60.85764 -150.11648 3383 ft 166 kts 73°
2026-04-28 23:45 60.86186 -150.09436 3394 ft 166 kts 72°
2026-04-28 23:45 60.86660 -150.07268 3398 ft 167 kts 70°
2026-04-28 23:45 60.87154 -150.05100 3397 ft 168 kts 69°
2026-04-28 23:46 60.87672 -150.02943 3401 ft 168 kts 68°
2026-04-28 23:46 60.88200 -150.00799 3404 ft 169 kts 67°
2026-04-28 23:46 60.88718 -149.98631 3405 ft 169 kts 70°
2026-04-28 23:46 60.89236 -149.96466 3404 ft 168 kts 65°
2026-04-28 23:47 60.89787 -149.94370 3405 ft 169 kts 66°
2026-04-28 23:47 60.90310 -149.92204 3405 ft 169 kts 67°
2026-04-28 23:47 60.90849 -149.90058 3405 ft 169 kts 65°
2026-04-28 23:47 60.91375 -149.87907 3404 ft 167 kts 68°
2026-04-28 23:48 60.92050 -149.85978 3406 ft 169 kts 40°
2026-04-28 23:48 60.93105 -149.84852 3406 ft 173 kts 27°
2026-04-28 23:48 60.94183 -149.83738 3411 ft 175 kts 25°
2026-04-28 23:48 60.95297 -149.82748 3406 ft 173 kts 25°
2026-04-28 23:49 60.96384 -149.81722 3386 ft 170 kts 24°
2026-04-28 23:49 60.97462 -149.80740 3312 ft 170 kts 25°
2026-04-28 23:49 60.98530 -149.79699 3175 ft 170 kts 28°
2026-04-28 23:49 60.99575 -149.78610 3069 ft 167 kts 27°
2026-04-28 23:50 61.00628 -149.77559 2939 ft 168 kts 26°
2026-04-28 23:50 61.01680 -149.76566 2811 ft 169 kts 23°
2026-04-28 23:50 61.02843 -149.76095 2500 ft 173 kts
2026-04-28 23:50 61.04038 -149.76009 2166 ft 168 kts
2026-04-28 23:51 61.05173 -149.75940 1908 ft 157 kts 354°